createdAt,value
2023-01-09T00:00:35.672Z,88.75
2023-01-09T00:03:03.357Z,89.25
2023-01-09T00:05:31.075Z,89.54
2023-01-09T00:07:58.879Z,90.04
2023-01-09T00:10:28.005Z,90.10
2023-01-09T00:12:55.676Z,90.21
2023-01-09T00:15:23.395Z,90.71
2023-01-09T00:17:51.303Z,90.73
2023-01-09T00:20:19.042Z,90.89
2023-01-09T00:22:46.692Z,91.00
2023-01-09T00:25:14.401Z,91.61
2023-01-09T00:27:43.452Z,91.88
2023-01-09T00:30:12.610Z,91.43
2023-01-09T00:32:40.279Z,91.69
2023-01-09T00:35:09.022Z,91.76
2023-01-09T00:37:36.755Z,91.68
2023-01-09T00:40:04.585Z,92.28
2023-01-09T00:42:33.790Z,92.48
2023-01-09T00:45:06.588Z,92.96
2023-01-09T00:47:38.060Z,92.88
2023-01-09T00:50:08.176Z,93.11
2023-01-09T00:52:37.743Z,93.38
2023-01-09T00:55:06.786Z,93.58
2023-01-09T00:57:34.561Z,93.71
2023-01-09T01:00:03.858Z,93.57
2023-01-09T01:02:31.619Z,93.91
2023-01-09T01:05:16.782Z,93.42
2023-01-09T01:07:45.003Z,93.08
2023-01-09T01:10:16.235Z,92.94
2023-01-09T01:12:44.827Z,92.36
2023-01-09T01:15:14.501Z,91.51
2023-01-09T01:17:42.733Z,91.85
2023-01-09T01:20:12.880Z,91.52
2023-01-09T01:22:42.412Z,91.32
2023-01-09T01:25:11.105Z,91.25
2023-01-09T01:27:39.067Z,91.42
2023-01-09T01:30:07.933Z,91.25
2023-01-09T01:32:37.315Z,91.31
2023-01-09T01:35:05.593Z,91.43
2023-01-09T01:37:35.465Z,91.82
2023-01-09T01:40:03.455Z,91.44
2023-01-09T01:42:31.347Z,91.64
2023-01-09T01:45:07.420Z,91.72
2023-01-09T01:47:41.824Z,91.57
2023-01-09T01:50:14.122Z,91.91
2023-01-09T01:52:43.832Z,91.57
2023-01-09T01:55:13.179Z,91.32
2023-01-09T01:57:43.198Z,91.57
2023-01-09T02:00:12.503Z,91.77
2023-01-09T02:02:43.416Z,91.39
2023-01-09T02:05:11.250Z,91.11
2023-01-09T02:07:38.884Z,90.60
2023-01-09T02:10:07.551Z,90.99
2023-01-09T02:12:35.265Z,90.31
2023-01-09T02:15:06.052Z,89.98
2023-01-09T02:17:46.815Z,89.98
2023-01-09T02:20:39.458Z,89.96
2023-01-09T02:23:36.385Z,89.88
2023-01-09T02:26:28.075Z,89.11
2023-01-09T02:29:32.028Z,88.87
2023-01-09T02:32:05.474Z,88.84
2023-01-09T02:34:38.353Z,89.00
2023-01-09T02:37:10.206Z,88.25
2023-01-09T02:39:43.984Z,87.93
2023-01-09T02:42:14.628Z,88.08
2023-01-09T02:44:43.030Z,88.19
2023-01-09T02:47:40.182Z,87.92
2023-01-09T02:50:10.498Z,88.17
2023-01-09T02:52:47.789Z,88.26
2023-01-09T02:55:22.562Z,88.73
2023-01-09T02:57:56.614Z,88.20
2023-01-09T03:00:32.191Z,88.27
2023-01-09T03:03:08.419Z,88.21
2023-01-09T03:05:40.663Z,88.67
2023-01-09T03:08:11.403Z,88.81
2023-01-09T03:10:41.806Z,88.98
2023-01-09T03:13:12.600Z,88.99
2023-01-09T03:15:41.243Z,88.77
2023-01-09T03:18:11.539Z,88.64
2023-01-09T03:20:39.957Z,88.87
2023-01-09T03:23:08.632Z,88.96
2023-01-09T03:25:36.368Z,88.89
2023-01-09T03:28:05.662Z,89.04
2023-01-09T03:30:35.273Z,88.59
2023-01-09T03:33:03.058Z,88.83
2023-01-09T03:35:32.179Z,88.60
2023-01-09T03:38:00.118Z,88.94
2023-01-09T03:40:27.814Z,89.18
2023-01-09T03:42:55.489Z,89.26
2023-01-09T03:45:23.162Z,88.79
2023-01-09T03:47:52.940Z,88.67
2023-01-09T03:50:20.984Z,89.09
2023-01-09T03:52:50.015Z,89.47
2023-01-09T03:55:17.929Z,89.75
2023-01-09T03:57:45.963Z,89.72
2023-01-09T04:00:14.661Z,89.20
2023-01-09T04:02:43.237Z,89.27
2023-01-09T04:05:11.170Z,89.05
2023-01-09T04:07:38.923Z,89.25
2023-01-09T04:10:09.554Z,89.31
2023-01-09T04:12:37.325Z,89.24
2023-01-09T04:15:05.677Z,88.85
2023-01-09T04:17:33.349Z,88.86
2023-01-09T04:20:01.032Z,89.02
2023-01-09T04:22:28.735Z,89.13
2023-01-09T04:24:56.437Z,89.03
2023-01-09T04:27:25.587Z,88.67
2023-01-09T04:29:53.265Z,88.86
2023-01-09T04:32:20.979Z,88.54
2023-01-09T04:34:48.848Z,88.07
2023-01-09T04:37:16.616Z,87.99
2023-01-09T04:39:44.422Z,88.06
2023-01-09T04:42:12.209Z,88.11
2023-01-09T04:44:41.324Z,87.74
2023-01-09T04:47:09.114Z,87.87
2023-01-09T04:49:37.006Z,87.78
2023-01-09T04:52:04.938Z,88.23
2023-01-09T04:54:32.533Z,87.61
2023-01-09T04:57:00.230Z,88.25
2023-01-09T04:59:27.933Z,88.07
2023-01-09T05:01:58.397Z,88.17
2023-01-09T05:04:26.617Z,88.37
2023-01-09T05:06:54.358Z,88.29
2023-01-09T05:09:22.803Z,88.00
2023-01-09T05:11:50.707Z,88.14
2023-01-09T05:14:18.427Z,88.46
2023-01-09T05:16:46.205Z,88.59
2023-01-09T05:19:15.396Z,88.38
2023-01-09T05:21:43.091Z,88.35
2023-01-09T05:24:10.812Z,88.25
2023-01-09T05:26:38.500Z,88.66
2023-01-09T05:29:06.186Z,88.69
2023-01-09T05:31:33.850Z,88.42
2023-01-09T05:34:01.560Z,88.77
2023-01-09T05:36:30.797Z,88.49
2023-01-09T05:38:58.801Z,88.30
2023-01-09T05:41:26.680Z,88.29
2023-01-09T05:43:54.337Z,88.15
2023-01-09T05:46:22.023Z,87.63
2023-01-09T05:48:49.742Z,87.69
2023-01-09T05:51:17.382Z,87.94
2023-01-09T05:53:46.406Z,87.98
2023-01-09T05:56:14.119Z,88.55
2023-01-09T05:58:41.849Z,89.00
2023-01-09T06:01:09.815Z,89.01
2023-01-09T06:03:37.587Z,89.06
2023-01-09T06:06:05.506Z,89.09
2023-01-09T06:08:33.196Z,89.68
2023-01-09T06:11:02.383Z,89.49
2023-01-09T06:13:30.111Z,89.52
2023-01-09T06:15:57.874Z,89.43
2023-01-09T06:18:25.685Z,89.65
2023-01-09T06:20:53.357Z,89.71
2023-01-09T06:23:21.013Z,89.79
2023-01-09T06:25:48.727Z,90.22
2023-01-09T06:28:17.792Z,90.28
2023-01-09T06:30:45.528Z,90.38
2023-01-09T06:33:13.263Z,89.62
2023-01-09T06:35:40.976Z,90.09
2023-01-09T06:38:08.667Z,89.95
2023-01-09T06:40:36.463Z,90.11
2023-01-09T06:43:04.177Z,90.50
2023-01-09T06:45:33.390Z,90.64
2023-01-09T06:48:01.116Z,90.33
2023-01-09T06:50:28.869Z,90.46
2023-01-09T06:52:56.660Z,90.27
2023-01-09T06:55:26.481Z,90.43
2023-01-09T06:57:54.845Z,90.18
2023-01-09T07:00:22.945Z,90.24
2023-01-09T07:02:52.028Z,90.53
2023-01-09T07:05:19.670Z,90.20
2023-01-09T07:07:47.344Z,90.16
2023-01-09T07:10:15.736Z,89.93
2023-01-09T07:12:43.408Z,90.13
2023-01-09T07:15:11.873Z,90.08
2023-01-09T07:17:39.575Z,90.26
2023-01-09T07:20:10.182Z,90.56
2023-01-09T07:22:37.833Z,90.00
2023-01-09T07:25:06.442Z,90.18
2023-01-09T07:27:34.154Z,90.19
2023-01-09T07:30:01.898Z,89.84
2023-01-09T07:32:29.723Z,89.84
2023-01-09T07:34:57.408Z,89.82
2023-01-09T07:37:26.543Z,89.99
2023-01-09T07:39:54.661Z,89.76
2023-01-09T07:42:22.390Z,90.21
2023-01-09T07:44:50.083Z,89.87
2023-01-09T07:47:17.903Z,90.12
2023-01-09T07:49:45.591Z,90.02
2023-01-09T07:52:13.247Z,89.98
2023-01-09T07:54:42.432Z,90.08
2023-01-09T07:57:10.097Z,90.02
2023-01-09T07:59:37.779Z,90.16
2023-01-09T08:02:07.198Z,90.42
2023-01-09T08:04:34.943Z,90.61
2023-01-09T08:07:03.496Z,90.88
2023-01-09T08:09:31.300Z,90.79
2023-01-09T08:12:00.398Z,90.85
2023-01-09T08:14:28.082Z,90.96
2023-01-09T08:16:55.824Z,90.73
2023-01-09T08:19:23.980Z,90.85
2023-01-09T08:21:51.778Z,90.93
2023-01-09T08:24:19.567Z,90.83
2023-01-09T08:26:47.321Z,90.56
2023-01-09T08:29:16.343Z,90.38
2023-01-09T08:31:44.079Z,90.79
2023-01-09T08:34:11.812Z,91.24
2023-01-09T08:36:39.450Z,91.58
2023-01-09T08:39:07.110Z,91.45
2023-01-09T08:41:52.379Z,91.73
2023-01-09T08:44:38.901Z,91.79
2023-01-09T08:47:06.621Z,91.68
2023-01-09T08:49:34.821Z,92.03
2023-01-09T08:52:02.855Z,91.99
2023-01-09T08:54:31.356Z,91.95
2023-01-09T08:56:59.429Z,92.38
2023-01-09T08:59:28.594Z,92.14
2023-01-09T09:01:56.415Z,92.42
2023-01-09T09:04:24.202Z,93.00
2023-01-09T09:06:52.004Z,92.72
2023-01-09T09:09:19.669Z,93.09
2023-01-09T09:11:47.477Z,93.11
2023-01-09T09:14:32.905Z,93.23
2023-01-09T09:17:02.055Z,93.75
2023-01-09T09:19:29.704Z,93.52
2023-01-09T09:21:57.442Z,93.49
2023-01-09T09:24:25.145Z,93.92
2023-01-09T09:26:52.800Z,94.34
2023-01-09T09:29:20.479Z,94.09
2023-01-09T09:31:48.189Z,94.18
2023-01-09T09:34:17.317Z,93.89
2023-01-09T09:36:45.138Z,94.39
2023-01-09T09:39:12.900Z,93.78
2023-01-09T09:42:19.645Z,94.15
2023-01-09T09:45:01.078Z,93.67
2023-01-09T09:47:41.549Z,93.95
2023-01-09T09:50:23.626Z,93.68
2023-01-09T09:52:58.468Z,93.55
2023-01-09T09:55:31.622Z,93.88
2023-01-09T09:58:02.402Z,93.74
2023-01-09T10:00:30.318Z,94.08
2023-01-09T10:03:02.069Z,94.55
2023-01-09T10:05:35.851Z,94.93
2023-01-09T10:08:15.359Z,94.77
2023-01-09T10:10:46.877Z,95.03
2023-01-09T10:13:37.628Z,95.17
2023-01-09T10:16:11.868Z,95.48
2023-01-09T10:18:46.359Z,95.83
2023-01-09T10:21:18.105Z,95.85
2023-01-09T10:24:01.096Z,95.34
2023-01-09T10:26:31.755Z,95.33
2023-01-09T10:29:20.005Z,95.70
2023-01-09T10:31:58.690Z,96.05
2023-01-09T10:34:35.433Z,95.64
2023-01-09T10:37:10.061Z,95.56
2023-01-09T10:39:42.367Z,95.33
2023-01-09T10:42:16.355Z,95.53
2023-01-09T10:44:48.988Z,95.60
2023-01-09T10:47:19.393Z,95.61
2023-01-09T10:49:47.695Z,95.16
2023-01-09T10:52:18.355Z,95.70
2023-01-09T10:54:52.590Z,95.78
2023-01-09T10:57:43.237Z,95.84
2023-01-09T11:00:21.645Z,95.82
2023-01-09T11:02:51.229Z,95.67
2023-01-09T11:05:21.314Z,95.82
2023-01-09T11:07:52.695Z,95.65
2023-01-09T11:10:21.792Z,95.87
2023-01-09T11:12:49.527Z,95.76
2023-01-09T11:15:30.661Z,95.49
2023-01-09T11:18:18.269Z,95.58
2023-01-09T11:20:46.064Z,95.45
2023-01-09T11:23:30.021Z,95.31
2023-01-09T11:25:59.214Z,94.92
2023-01-09T11:28:27.188Z,95.13
2023-01-09T11:31:00.930Z,94.54
2023-01-09T11:33:30.308Z,94.15
2023-01-09T11:36:04.173Z,94.14
2023-01-09T11:38:45.487Z,93.50
2023-01-09T11:41:18.403Z,93.15
2023-01-09T11:43:47.118Z,92.57
2023-01-09T11:46:37.399Z,92.14
2023-01-09T11:49:06.960Z,92.12
2023-01-09T11:51:36.863Z,91.67
2023-01-09T11:54:22.101Z,92.10
2023-01-09T11:56:50.075Z,91.98
2023-01-09T11:59:18.856Z,92.65
2023-01-09T12:02:02.643Z,92.00
2023-01-09T12:04:34.287Z,92.54
2023-01-09T12:07:30.507Z,92.49
2023-01-09T12:10:06.498Z,92.90
2023-01-09T12:12:39.503Z,93.70
2023-01-09T12:15:22.615Z,93.45
2023-01-09T12:18:26.161Z,93.46
2023-01-09T12:21:05.385Z,93.63
2023-01-09T12:23:44.846Z,94.05
2023-01-09T12:26:19.091Z,93.78
2023-01-09T12:29:02.450Z,94.39
2023-01-09T12:31:41.248Z,94.28
2023-01-09T12:34:22.014Z,93.97
2023-01-09T12:36:58.953Z,94.43
2023-01-09T12:39:31.960Z,94.74
2023-01-09T12:42:13.700Z,94.95
2023-01-09T12:44:50.552Z,94.68
2023-01-09T12:47:46.739Z,94.12
2023-01-09T12:50:32.381Z,94.56
2023-01-09T12:53:08.037Z,95.13
2023-01-09T12:55:38.484Z,94.82
2023-01-09T12:58:13.972Z,93.02
2023-01-09T13:00:43.024Z,93.77
2023-01-09T13:03:16.249Z,94.46
2023-01-09T13:05:45.669Z,93.57
2023-01-09T13:08:16.001Z,93.41
2023-01-09T13:10:45.086Z,93.39
2023-01-09T13:13:16.753Z,92.35
2023-01-09T13:15:46.556Z,91.44
2023-01-09T13:18:20.012Z,91.19
2023-01-09T13:20:49.154Z,90.22
2023-01-09T13:23:21.133Z,90.91
2023-01-09T13:25:50.098Z,91.46
2023-01-09T13:28:22.590Z,91.30
2023-01-09T13:31:06.939Z,91.59
2023-01-09T13:33:36.082Z,90.70
2023-01-09T13:36:04.410Z,91.63
2023-01-09T13:38:33.961Z,91.15
2023-01-09T13:41:28.926Z,91.41
2023-01-09T13:43:59.811Z,91.91
2023-01-09T13:46:38.533Z,91.73
2023-01-09T13:49:08.844Z,92.00
2023-01-09T13:51:59.365Z,91.75
2023-01-09T13:55:04.415Z,91.11
2023-01-09T13:57:34.818Z,91.99
2023-01-09T14:00:40.098Z,91.68
2023-01-09T14:03:20.783Z,91.06
2023-01-09T14:06:24.234Z,91.22
2023-01-09T14:09:09.579Z,92.34
2023-01-09T14:11:37.228Z,91.99
2023-01-09T14:14:09.094Z,91.93
2023-01-09T14:16:36.997Z,91.59
2023-01-09T14:19:23.797Z,91.26
2023-01-09T14:21:54.152Z,90.98
2023-01-09T14:24:25.785Z,91.26
2023-01-09T14:26:57.116Z,91.15
2023-01-09T14:29:39.599Z,91.13
2023-01-09T14:32:40.522Z,91.17
2023-01-09T14:35:19.153Z,90.48
2023-01-09T14:37:54.138Z,90.08
2023-01-09T14:40:23.865Z,89.80
2023-01-09T14:42:54.484Z,89.29
2023-01-09T14:45:24.645Z,88.85
2023-01-09T14:47:54.992Z,88.03
2023-01-09T14:50:30.766Z,88.27
2023-01-09T14:53:03.890Z,88.04
2023-01-09T14:55:37.010Z,87.67
2023-01-09T14:58:21.937Z,87.37
2023-01-09T15:00:52.585Z,87.47
2023-01-09T15:03:20.725Z,86.98
2023-01-09T15:05:50.282Z,87.15
2023-01-09T15:08:19.706Z,86.88
2023-01-09T15:10:49.148Z,86.47
2023-01-09T15:13:18.908Z,86.59
2023-01-09T15:15:47.594Z,86.92
2023-01-09T15:18:21.708Z,86.70
2023-01-09T15:20:54.779Z,86.91
2023-01-09T15:23:24.780Z,86.75
2023-01-09T15:25:53.048Z,87.29
2023-01-09T15:28:27.774Z,87.14
2023-01-09T15:30:58.232Z,87.58
2023-01-09T15:33:26.227Z,87.53
2023-01-09T15:36:00.206Z,87.01
2023-01-09T15:38:28.931Z,87.68
2023-01-09T15:40:59.044Z,87.61
2023-01-09T15:43:26.966Z,87.47
2023-01-09T15:45:55.076Z,88.30
2023-01-09T15:48:25.459Z,88.19
2023-01-09T15:50:57.915Z,88.26
2023-01-09T15:53:26.792Z,88.19
2023-01-09T15:56:13.857Z,88.42
2023-01-09T15:58:47.002Z,88.52
2023-01-09T16:01:27.068Z,88.30
2023-01-09T16:03:55.690Z,88.49
2023-01-09T16:06:26.461Z,88.50
2023-01-09T16:08:56.283Z,88.50
2023-01-09T16:11:25.561Z,88.53
2023-01-09T16:13:53.855Z,88.57
2023-01-09T16:16:27.706Z,89.00
2023-01-09T16:18:56.576Z,89.12
2023-01-09T16:21:32.329Z,88.76
2023-01-09T16:24:00.925Z,88.82
2023-01-09T16:26:30.065Z,88.85
2023-01-09T16:28:58.173Z,89.05
2023-01-09T16:31:27.432Z,88.83
2023-01-09T16:33:58.888Z,89.28
2023-01-09T16:36:29.236Z,89.49
2023-01-09T16:38:57.782Z,89.28
2023-01-09T16:41:43.005Z,89.76
2023-01-09T16:44:11.993Z,90.02
2023-01-09T16:46:41.638Z,90.24
2023-01-09T16:49:17.771Z,90.42
2023-01-09T16:51:46.970Z,90.55
2023-01-09T16:54:14.943Z,90.82
2023-01-09T16:56:44.463Z,90.73
2023-01-09T16:59:14.119Z,90.69
2023-01-09T17:01:43.320Z,90.72
2023-01-09T17:04:12.468Z,90.52
2023-01-09T17:06:40.818Z,90.59
2023-01-09T17:10:46.259Z,90.35
2023-01-09T17:13:13.875Z,90.31
2023-01-09T17:15:41.541Z,90.13
2023-01-09T17:18:14.242Z,90.00
2023-01-09T17:20:43.476Z,90.38
2023-01-09T17:23:11.216Z,90.09
2023-01-09T17:25:56.572Z,89.61
2023-01-09T17:28:35.723Z,89.57
2023-01-09T17:31:05.997Z,89.38
2023-01-09T17:33:34.300Z,89.01
2023-01-09T17:36:03.090Z,89.02
2023-01-09T17:38:30.759Z,88.89
2023-01-09T17:40:58.436Z,88.91
2023-01-09T17:43:27.536Z,89.22
2023-01-09T17:45:55.317Z,88.57
2023-01-09T17:48:23.718Z,88.42
2023-01-09T17:50:51.424Z,88.70
2023-01-09T17:53:20.699Z,88.48
2023-01-09T17:55:48.429Z,88.42
2023-01-09T17:58:25.920Z,88.67
2023-01-09T18:00:55.053Z,88.82
2023-01-09T18:03:23.123Z,88.54
2023-01-09T18:05:51.103Z,88.57
2023-01-09T18:08:18.893Z,88.84
2023-01-09T18:10:48.424Z,88.91
2023-01-09T18:13:16.529Z,89.16
2023-01-09T18:15:44.602Z,89.39
2023-01-09T18:18:13.973Z,89.56
2023-01-09T18:20:41.930Z,89.56
2023-01-09T18:23:10.850Z,89.28
2023-01-09T18:25:40.458Z,89.50
2023-01-09T18:28:08.117Z,89.21
2023-01-09T18:30:35.971Z,89.34
2023-01-09T18:33:04.207Z,89.61
2023-01-09T18:35:35.158Z,89.41
2023-01-09T18:38:02.897Z,89.68
2023-01-09T18:40:30.722Z,89.33
2023-01-09T18:42:58.414Z,89.76
2023-01-09T18:45:26.252Z,89.73
2023-01-09T18:47:53.958Z,89.45
2023-01-09T18:50:21.645Z,89.97
2023-01-09T18:52:50.732Z,89.98
2023-01-09T18:55:18.436Z,90.44
2023-01-09T18:57:46.128Z,90.45
2023-01-09T19:00:14.724Z,90.96
2023-01-09T19:02:42.443Z,90.98
2023-01-09T19:05:10.884Z,91.07
2023-01-09T19:07:38.624Z,90.86
2023-01-09T19:10:09.094Z,91.41
2023-01-09T19:12:36.818Z,91.57
2023-01-09T19:15:07.464Z,91.58
2023-01-09T19:17:35.127Z,91.45
2023-01-09T19:20:02.876Z,91.44
2023-01-09T19:22:30.525Z,91.79
2023-01-09T19:24:58.256Z,91.76
2023-01-09T19:27:29.437Z,91.63
2023-01-09T19:29:57.184Z,91.33
2023-01-09T19:32:24.862Z,91.21
2023-01-09T19:34:52.531Z,91.29
2023-01-09T19:37:20.307Z,91.23
2023-01-09T19:39:48.027Z,91.11
2023-01-09T19:42:16.325Z,91.26
2023-01-09T19:44:46.161Z,91.03
2023-01-09T19:47:14.139Z,91.06
2023-01-09T19:49:41.825Z,91.18
2023-01-09T19:52:09.507Z,91.40
2023-01-09T19:54:37.406Z,91.26
2023-01-09T19:57:05.112Z,91.14
2023-01-09T19:59:35.109Z,91.02
2023-01-09T20:02:05.035Z,91.09
2023-01-09T20:04:32.859Z,91.13
2023-01-09T20:07:00.521Z,91.03
2023-01-09T20:09:28.905Z,91.28
2023-01-09T20:11:56.580Z,90.80
2023-01-09T20:14:24.416Z,91.46
2023-01-09T20:16:54.078Z,91.40
2023-01-09T20:19:23.518Z,91.50
2023-01-09T20:21:51.150Z,91.60
2023-01-09T20:24:18.857Z,91.30
2023-01-09T20:26:47.251Z,90.87
2023-01-09T20:29:15.039Z,91.13
2023-01-09T20:31:42.711Z,90.78
2023-01-09T20:34:11.258Z,90.55
2023-01-09T20:36:40.386Z,90.18
2023-01-09T20:39:10.569Z,89.86
2023-01-09T20:41:38.494Z,89.82
2023-01-09T20:44:07.772Z,89.49
2023-01-09T20:46:37.036Z,88.81
2023-01-09T20:49:06.577Z,89.28
2023-01-09T20:51:34.619Z,89.01
2023-01-09T20:54:03.950Z,89.64
2023-01-09T20:56:32.698Z,89.70
2023-01-09T20:59:01.200Z,89.90
2023-01-09T21:01:29.350Z,90.00
2023-01-09T21:03:57.540Z,90.05
2023-01-09T21:06:26.273Z,90.16
2023-01-09T21:08:54.040Z,90.01
2023-01-09T21:11:23.634Z,89.95
2023-01-09T21:13:51.778Z,89.74
2023-01-09T21:16:21.743Z,90.36
2023-01-09T21:18:50.015Z,90.23
2023-01-09T21:21:19.372Z,90.38
2023-01-09T21:23:47.510Z,90.46
2023-01-09T21:26:16.078Z,90.67
2023-01-09T21:28:48.862Z,90.61
2023-01-09T21:31:19.199Z,90.36
2023-01-09T21:33:47.455Z,90.60
2023-01-09T21:36:15.894Z,90.59
2023-01-09T21:38:43.841Z,90.46
2023-01-09T21:41:28.175Z,90.91
2023-01-09T21:44:14.658Z,90.77
2023-01-09T21:46:55.952Z,90.85
2023-01-09T21:49:25.409Z,90.55
2023-01-09T21:51:53.762Z,90.74
2023-01-09T21:54:21.581Z,90.67
2023-01-09T21:56:49.239Z,90.44
2023-01-09T21:59:18.357Z,90.38
2023-01-09T22:01:46.265Z,90.58
2023-01-09T22:04:15.285Z,90.53
2023-01-09T22:06:43.077Z,90.38
2023-01-09T22:09:11.136Z,90.54
2023-01-09T22:11:39.146Z,90.31
2023-01-09T22:14:06.964Z,90.31
2023-01-09T22:16:36.068Z,90.51
2023-01-09T22:19:03.810Z,90.12
2023-01-09T22:21:31.450Z,90.08
2023-01-09T22:24:01.442Z,90.33
2023-01-09T22:26:30.459Z,90.17
2023-01-09T22:28:58.261Z,90.22
2023-01-09T22:31:28.551Z,90.26
2023-01-09T22:33:59.338Z,90.70
2023-01-09T22:36:28.440Z,90.81
2023-01-09T22:38:57.177Z,91.06
2023-01-09T22:41:26.034Z,91.23
2023-01-09T22:43:54.060Z,91.01
2023-01-09T22:46:22.034Z,90.64
2023-01-09T22:48:49.708Z,90.98
2023-01-09T22:51:20.570Z,90.72
2023-01-09T22:53:48.557Z,90.94
2023-01-09T22:56:18.052Z,90.76
2023-01-09T22:58:46.070Z,90.88
2023-01-09T23:01:14.054Z,90.57
2023-01-09T23:03:41.974Z,90.74
2023-01-09T23:06:12.355Z,90.65
2023-01-09T23:08:41.723Z,90.81
2023-01-09T23:11:11.661Z,90.09
2023-01-09T23:13:42.799Z,90.03
2023-01-09T23:16:10.931Z,90.15
2023-01-09T23:18:38.771Z,90.22
2023-01-09T23:21:06.411Z,89.79
2023-01-09T23:23:36.916Z,89.59
2023-01-09T23:26:06.045Z,89.64
2023-01-09T23:28:33.852Z,89.81
2023-01-09T23:31:01.611Z,89.09
2023-01-09T23:33:29.320Z,89.03
2023-01-09T23:35:57.053Z,89.03
2023-01-09T23:38:24.952Z,89.07
2023-01-09T23:40:57.193Z,89.50
2023-01-09T23:43:25.297Z,89.61
2023-01-09T23:45:53.319Z,89.50
2023-01-09T23:48:21.292Z,89.14
2023-01-09T23:50:50.333Z,89.07
2023-01-09T23:53:18.704Z,89.06
2023-01-09T23:55:46.405Z,89.10
2023-01-09T23:58:14.190Z,89.23
